createdAt,value
2022-12-10T00:00:14.679Z,1.56
2022-12-10T00:01:14.647Z,1.56
2022-12-10T00:02:14.630Z,1.56
2022-12-10T00:03:14.628Z,1.54
2022-12-10T00:04:14.657Z,1.53
2022-12-10T00:05:14.653Z,1.50
2022-12-10T00:06:14.567Z,1.52
2022-12-10T00:07:14.580Z,1.53
2022-12-10T00:08:14.667Z,1.52
2022-12-10T00:09:14.535Z,1.52
2022-12-10T00:10:14.688Z,1.53
2022-12-10T00:11:14.511Z,1.52
2022-12-10T00:12:14.486Z,1.52
2022-12-10T00:13:14.487Z,1.52
2022-12-10T00:14:14.465Z,1.52
2022-12-10T00:15:14.476Z,1.52
2022-12-10T00:16:14.585Z,1.50
2022-12-10T00:17:14.433Z,1.50
2022-12-10T00:18:14.425Z,1.49
2022-12-10T00:19:14.655Z,1.50
2022-12-10T00:20:14.388Z,1.49
2022-12-10T00:21:14.386Z,1.49
2022-12-10T00:22:14.353Z,1.47
2022-12-10T00:23:17.518Z,1.47
2022-12-10T00:24:15.600Z,1.46
2022-12-10T00:25:14.327Z,1.43
2022-12-10T00:26:14.302Z,1.44
2022-12-10T00:27:14.302Z,1.44
2022-12-10T00:28:14.283Z,1.43
2022-12-10T00:29:14.272Z,1.46
2022-12-10T00:30:14.264Z,1.43
2022-12-10T00:31:14.299Z,1.39
2022-12-10T00:32:14.231Z,1.39
2022-12-10T00:33:14.259Z,1.39
2022-12-10T00:34:14.193Z,1.38
2022-12-10T00:35:14.192Z,1.36
2022-12-10T00:36:14.184Z,1.36
2022-12-10T00:37:14.169Z,1.35
2022-12-10T00:38:14.181Z,1.34
2022-12-10T00:39:14.475Z,1.36
2022-12-10T00:40:14.185Z,1.35
2022-12-10T00:41:14.351Z,1.35
2022-12-10T00:42:14.115Z,1.34
2022-12-10T00:43:14.104Z,1.35
2022-12-10T00:44:14.069Z,1.35
2022-12-10T00:45:14.079Z,1.35
2022-12-10T00:46:14.119Z,1.35
2022-12-10T00:47:14.144Z,1.38
2022-12-10T00:48:14.036Z,1.35
2022-12-10T00:49:14.016Z,1.35
2022-12-10T00:50:14.277Z,1.35
2022-12-10T00:51:14.008Z,1.36
2022-12-10T00:52:14.256Z,1.35
2022-12-10T00:53:13.967Z,1.34
2022-12-10T00:54:13.940Z,1.34
2022-12-10T00:55:13.937Z,1.34
2022-12-10T00:56:13.914Z,1.32
2022-12-10T00:57:13.928Z,1.32
2022-12-10T00:58:13.896Z,1.32
2022-12-10T00:59:13.875Z,1.34
2022-12-10T01:00:13.864Z,1.34
2022-12-10T01:01:13.881Z,1.32
2022-12-10T01:02:13.909Z,1.32
2022-12-10T01:03:13.853Z,1.31
2022-12-10T01:04:14.071Z,1.32
2022-12-10T01:05:13.814Z,1.31
2022-12-10T01:06:13.809Z,1.29
2022-12-10T01:07:13.788Z,1.29
2022-12-10T01:08:13.859Z,1.28
2022-12-10T01:09:13.763Z,1.29
2022-12-10T01:10:13.748Z,1.29
2022-12-10T01:11:13.742Z,1.28
2022-12-10T01:12:13.740Z,1.28
2022-12-10T01:13:13.716Z,1.29
2022-12-10T01:14:13.692Z,1.31
2022-12-10T01:15:13.711Z,1.29
2022-12-10T01:16:13.676Z,1.29
2022-12-10T01:17:13.661Z,1.28
2022-12-10T01:18:13.926Z,1.28
2022-12-10T01:19:13.632Z,1.28
2022-12-10T01:20:13.601Z,1.28
2022-12-10T01:21:13.591Z,1.28
2022-12-10T01:22:13.587Z,1.29
2022-12-10T01:23:13.592Z,1.28
2022-12-10T01:24:13.549Z,1.28
2022-12-10T01:25:13.542Z,1.28
2022-12-10T01:26:13.519Z,1.31
2022-12-10T01:27:13.519Z,1.28
2022-12-10T01:28:13.513Z,1.28
2022-12-10T01:29:13.781Z,1.29
2022-12-10T01:30:13.459Z,1.28
2022-12-10T01:31:13.489Z,1.28
2022-12-10T01:32:13.453Z,1.28
2022-12-10T01:33:13.451Z,1.29
2022-12-10T01:34:13.688Z,1.28
2022-12-10T01:35:13.408Z,1.29
2022-12-10T01:36:13.409Z,1.26
2022-12-10T01:37:13.395Z,1.26
2022-12-10T01:38:13.378Z,1.28
2022-12-10T01:39:13.348Z,1.28
2022-12-10T01:40:13.346Z,1.26
2022-12-10T01:41:13.327Z,1.28
2022-12-10T01:42:13.317Z,1.28
2022-12-10T01:43:13.307Z,1.28
2022-12-10T01:44:13.285Z,1.26
2022-12-10T01:45:13.286Z,1.26
2022-12-10T01:46:13.343Z,1.25
2022-12-10T01:47:13.255Z,1.25
2022-12-10T01:48:13.275Z,1.25
2022-12-10T01:49:13.239Z,1.26
2022-12-10T01:50:13.214Z,1.28
2022-12-10T01:51:13.196Z,1.26
2022-12-10T01:52:13.175Z,1.25
2022-12-10T01:53:13.195Z,1.21
2022-12-10T01:54:13.173Z,1.21
2022-12-10T01:55:13.205Z,1.21
2022-12-10T01:56:13.144Z,1.21
2022-12-10T01:57:13.412Z,1.21
2022-12-10T01:58:13.124Z,1.21
2022-12-10T01:59:13.121Z,1.21
2022-12-10T02:00:13.093Z,1.24
2022-12-10T02:01:13.088Z,1.21
2022-12-10T02:02:13.089Z,1.24
2022-12-10T02:03:13.064Z,1.21
2022-12-10T02:04:13.293Z,1.21
2022-12-10T02:05:13.024Z,1.24
2022-12-10T02:06:13.015Z,1.21
2022-12-10T02:07:12.992Z,1.20
2022-12-10T02:08:13.036Z,1.20
2022-12-10T02:09:12.971Z,1.20
2022-12-10T02:10:12.951Z,1.20
2022-12-10T02:11:12.973Z,1.20
2022-12-10T02:12:12.923Z,1.20
2022-12-10T02:13:12.931Z,1.17
2022-12-10T02:14:12.891Z,1.18
2022-12-10T02:15:12.880Z,1.18
2022-12-10T02:16:12.928Z,1.18
2022-12-10T02:17:12.850Z,1.20
2022-12-10T02:18:12.860Z,1.18
2022-12-10T02:19:12.842Z,1.18
2022-12-10T02:20:12.859Z,1.17
2022-12-10T02:21:12.809Z,1.17
2022-12-10T02:22:13.070Z,1.17
2022-12-10T02:23:12.801Z,1.16
2022-12-10T02:24:12.773Z,1.16
2022-12-10T02:25:12.750Z,1.16
2022-12-10T02:26:12.743Z,1.16
2022-12-10T02:27:12.719Z,1.16
2022-12-10T02:28:12.750Z,1.16
2022-12-10T02:29:12.704Z,1.14
2022-12-10T02:30:12.959Z,1.14
2022-12-10T02:31:12.746Z,1.14
2022-12-10T02:32:12.679Z,1.13
2022-12-10T02:33:12.666Z,1.14
2022-12-10T02:34:12.657Z,1.13
2022-12-10T02:35:12.634Z,1.13
2022-12-10T02:36:12.608Z,1.13
2022-12-10T02:37:12.689Z,1.13
2022-12-10T02:38:12.596Z,1.13
2022-12-10T02:39:12.605Z,1.14
2022-12-10T02:40:12.558Z,1.13
2022-12-10T02:41:12.814Z,1.13
2022-12-10T02:42:12.544Z,1.13
2022-12-10T02:43:12.536Z,1.13
2022-12-10T02:44:12.505Z,1.11
2022-12-10T02:45:12.508Z,1.14
2022-12-10T02:46:12.510Z,1.11
2022-12-10T02:47:12.464Z,1.13
2022-12-10T02:48:12.474Z,1.13
2022-12-10T02:49:12.443Z,1.16
2022-12-10T02:50:12.447Z,1.13
2022-12-10T02:51:12.422Z,1.13
2022-12-10T02:52:12.424Z,1.13
2022-12-10T02:53:12.403Z,1.14
2022-12-10T02:54:12.373Z,1.14
2022-12-10T02:55:12.399Z,1.11
2022-12-10T02:56:12.352Z,1.11
2022-12-10T02:57:12.332Z,1.11
2022-12-10T02:58:12.345Z,1.11
2022-12-10T02:59:12.343Z,1.10
2022-12-10T03:00:12.503Z,1.11
2022-12-10T03:01:12.363Z,1.10
2022-12-10T03:02:12.318Z,1.11
2022-12-10T03:03:12.339Z,1.10
2022-12-10T03:04:12.249Z,1.10
2022-12-10T03:05:12.229Z,1.13
2022-12-10T03:06:12.223Z,1.11
2022-12-10T03:07:12.198Z,1.13
2022-12-10T03:08:12.611Z,1.13
2022-12-10T03:09:12.180Z,1.13
2022-12-10T03:10:12.176Z,1.14
2022-12-10T03:11:12.158Z,1.13
2022-12-10T03:12:12.143Z,1.11
2022-12-10T03:13:12.189Z,1.13
2022-12-10T03:14:12.120Z,1.11
2022-12-10T03:15:12.101Z,1.11
2022-12-10T03:16:12.145Z,1.10
2022-12-10T03:17:12.082Z,1.11
2022-12-10T03:18:12.129Z,1.11
2022-12-10T03:19:12.064Z,1.11
2022-12-10T03:20:12.034Z,1.10
2022-12-10T03:21:12.015Z,1.10
2022-12-10T03:22:12.014Z,1.10
2022-12-10T03:23:12.005Z,1.08
2022-12-10T03:24:12.005Z,1.10
2022-12-10T03:25:11.964Z,1.08
2022-12-10T03:26:11.992Z,1.08
2022-12-10T03:27:11.948Z,1.08
2022-12-10T03:28:12.211Z,1.08
2022-12-10T03:29:11.923Z,1.08
2022-12-10T03:30:11.913Z,1.10
2022-12-10T03:31:11.917Z,1.08
2022-12-10T03:32:11.883Z,1.08
2022-12-10T03:33:11.876Z,1.08
2022-12-10T03:34:11.872Z,1.08
2022-12-10T03:35:11.847Z,1.08
2022-12-10T03:36:11.847Z,1.08
2022-12-10T03:37:11.812Z,1.10
2022-12-10T03:38:11.886Z,1.10
2022-12-10T03:39:11.779Z,1.10
2022-12-10T03:40:11.878Z,1.10
2022-12-10T03:41:11.759Z,1.08
2022-12-10T03:42:11.751Z,1.10
2022-12-10T03:43:11.761Z,1.11
2022-12-10T03:44:11.780Z,1.10
2022-12-10T03:45:11.711Z,1.10
2022-12-10T03:46:11.752Z,1.10
2022-12-10T03:47:11.681Z,1.08
2022-12-10T03:48:11.705Z,1.11
2022-12-10T03:49:11.649Z,1.10
2022-12-10T03:50:11.741Z,1.11
2022-12-10T03:51:11.627Z,1.13
2022-12-10T03:52:11.638Z,1.14
2022-12-10T03:53:11.611Z,1.13
2022-12-10T03:54:11.597Z,1.11
2022-12-10T03:55:11.855Z,1.10
2022-12-10T03:56:11.577Z,1.13
2022-12-10T03:57:11.558Z,1.13
2022-12-10T03:58:14.800Z,1.13
2022-12-10T03:59:12.516Z,1.11
2022-12-10T04:00:11.822Z,1.11
2022-12-10T04:01:11.811Z,1.11
2022-12-10T04:02:11.498Z,1.11
2022-12-10T04:03:11.504Z,1.11
2022-12-10T04:04:11.560Z,1.11
2022-12-10T04:05:11.444Z,1.11
2022-12-10T04:06:11.439Z,1.11
2022-12-10T04:07:11.435Z,1.10
2022-12-10T04:08:11.483Z,1.08
2022-12-10T04:09:11.404Z,1.08
2022-12-10T04:10:11.564Z,1.10
2022-12-10T04:11:11.363Z,1.11
2022-12-10T04:12:11.354Z,1.10
2022-12-10T04:13:11.358Z,1.11
2022-12-10T04:14:11.332Z,1.08
2022-12-10T04:15:11.338Z,1.10
2022-12-10T04:16:11.336Z,1.08
2022-12-10T04:17:11.623Z,1.08
2022-12-10T04:18:11.287Z,1.08
2022-12-10T04:19:11.271Z,1.08
2022-12-10T04:20:11.513Z,1.07
2022-12-10T04:21:11.231Z,1.06
2022-12-10T04:22:11.230Z,1.04
2022-12-10T04:23:11.235Z,1.04
2022-12-10T04:24:11.194Z,1.04
2022-12-10T04:25:11.188Z,1.06
2022-12-10T04:26:11.184Z,1.04
2022-12-10T04:27:11.162Z,1.04
2022-12-10T04:28:11.171Z,1.02
2022-12-10T04:29:11.392Z,1.02
2022-12-10T04:30:11.585Z,1.04
2022-12-10T04:31:11.145Z,1.02
2022-12-10T04:32:11.381Z,1.04
2022-12-10T04:33:11.101Z,1.02
2022-12-10T04:34:11.098Z,1.04
2022-12-10T04:35:11.061Z,1.06
2022-12-10T04:36:11.055Z,1.04
2022-12-10T04:37:11.019Z,1.04
2022-12-10T04:38:11.028Z,1.04
2022-12-10T04:39:11.008Z,1.02
2022-12-10T04:40:11.356Z,1.02
2022-12-10T04:41:10.979Z,1.00
2022-12-10T04:42:10.999Z,0.98
2022-12-10T04:43:10.965Z,0.99
2022-12-10T04:44:10.939Z,0.98
2022-12-10T04:45:10.925Z,0.96
2022-12-10T04:46:10.943Z,0.96
2022-12-10T04:47:10.903Z,0.95
2022-12-10T04:48:10.904Z,0.95
2022-12-10T04:49:10.876Z,0.93
2022-12-10T04:50:11.170Z,0.93
2022-12-10T04:51:10.906Z,0.93
2022-12-10T04:52:10.836Z,0.95
2022-12-10T04:53:10.832Z,0.96
2022-12-10T04:54:10.815Z,0.96
2022-12-10T04:55:10.802Z,0.95
2022-12-10T04:56:10.788Z,0.95
2022-12-10T04:57:10.782Z,0.95
2022-12-10T04:58:10.777Z,0.95
2022-12-10T04:59:10.733Z,0.95
2022-12-10T05:00:11.016Z,0.95
2022-12-10T05:01:10.775Z,0.95
2022-12-10T05:02:10.702Z,0.95
2022-12-10T05:03:10.703Z,0.95
2022-12-10T05:04:10.724Z,0.95
2022-12-10T05:05:10.665Z,0.95
2022-12-10T05:06:10.662Z,0.95
2022-12-10T05:07:10.633Z,0.95
2022-12-10T05:08:10.700Z,0.95
2022-12-10T05:09:10.870Z,0.95
2022-12-10T05:10:10.913Z,0.93
2022-12-10T05:11:10.862Z,0.95
2022-12-10T05:12:10.581Z,0.95
2022-12-10T05:13:10.600Z,0.93
2022-12-10T05:14:10.551Z,0.95
2022-12-10T05:15:10.570Z,0.93
2022-12-10T05:16:10.546Z,0.95
2022-12-10T05:17:10.514Z,0.95
2022-12-10T05:18:10.500Z,0.96
2022-12-10T05:19:10.495Z,0.96
2022-12-10T05:20:10.825Z,0.96
2022-12-10T05:21:10.464Z,0.95
2022-12-10T05:22:10.450Z,0.95
2022-12-10T05:23:10.444Z,0.95
2022-12-10T05:24:10.424Z,0.95
2022-12-10T05:25:10.414Z,0.93
2022-12-10T05:26:10.399Z,0.93
2022-12-10T05:27:10.376Z,0.93
2022-12-10T05:28:10.380Z,0.93
2022-12-10T05:29:10.361Z,0.93
2022-12-10T05:30:10.509Z,0.92
2022-12-10T05:31:10.351Z,0.90
2022-12-10T05:32:10.321Z,0.90
2022-12-10T05:33:10.312Z,0.90
2022-12-10T05:34:10.296Z,0.90
2022-12-10T05:35:10.573Z,0.89
2022-12-10T05:36:10.265Z,0.88
2022-12-10T05:37:10.254Z,0.89
2022-12-10T05:38:10.518Z,0.88
2022-12-10T05:39:10.215Z,0.88
2022-12-10T05:40:10.486Z,0.89
2022-12-10T05:41:10.197Z,0.88
2022-12-10T05:42:10.187Z,0.88
2022-12-10T05:43:10.176Z,0.88
2022-12-10T05:44:10.416Z,0.84
2022-12-10T05:45:10.164Z,0.88
2022-12-10T05:46:10.150Z,0.86
2022-12-10T05:47:10.122Z,0.86
2022-12-10T05:48:10.115Z,0.86
2022-12-10T05:49:10.093Z,0.86
2022-12-10T05:50:10.366Z,0.86
2022-12-10T05:51:10.092Z,0.86
2022-12-10T05:52:10.055Z,0.86
2022-12-10T05:53:10.044Z,0.84
2022-12-10T05:54:10.324Z,0.84
2022-12-10T05:55:10.026Z,0.82
2022-12-10T05:56:10.005Z,0.84
2022-12-10T05:57:09.999Z,0.86
2022-12-10T05:58:09.985Z,0.84
2022-12-10T05:59:16.060Z,0.84
2022-12-10T06:00:11.270Z,0.84
2022-12-10T06:01:09.940Z,0.84
2022-12-10T06:02:09.939Z,0.82
2022-12-10T06:03:09.957Z,0.84
2022-12-10T06:04:10.107Z,0.82
2022-12-10T06:05:09.894Z,0.84
2022-12-10T06:06:09.871Z,0.81
2022-12-10T06:07:11.417Z,0.84
2022-12-10T06:08:09.904Z,0.84
2022-12-10T06:09:09.841Z,0.82
2022-12-10T06:10:10.180Z,0.81
2022-12-10T06:11:09.803Z,0.82
2022-12-10T06:12:09.798Z,0.80
2022-12-10T06:13:09.779Z,0.80
2022-12-10T06:14:09.869Z,0.78
2022-12-10T06:15:09.765Z,0.78
2022-12-10T06:16:09.839Z,0.80
2022-12-10T06:17:09.745Z,0.78
2022-12-10T06:18:09.717Z,0.80
2022-12-10T06:19:09.711Z,0.81
2022-12-10T06:20:10.073Z,0.81
2022-12-10T06:21:09.696Z,0.80
2022-12-10T06:22:09.687Z,0.80
2022-12-10T06:23:09.647Z,0.78
2022-12-10T06:24:09.661Z,0.80
2022-12-10T06:25:09.626Z,0.80
2022-12-10T06:26:09.625Z,0.78
2022-12-10T06:27:09.868Z,0.78
2022-12-10T06:28:09.585Z,0.77
2022-12-10T06:29:09.594Z,0.75
2022-12-10T06:30:09.736Z,0.77
2022-12-10T06:31:09.842Z,0.75
2022-12-10T06:32:09.533Z,0.75
2022-12-10T06:33:09.527Z,0.75
2022-12-10T06:34:09.796Z,0.74
2022-12-10T06:35:09.494Z,0.75
2022-12-10T06:36:09.477Z,0.77
2022-12-10T06:37:09.487Z,0.75
2022-12-10T06:38:09.454Z,0.74
2022-12-10T06:39:09.454Z,0.75
2022-12-10T06:40:09.632Z,0.74
2022-12-10T06:41:09.423Z,0.74
2022-12-10T06:42:09.530Z,0.74
2022-12-10T06:43:09.399Z,0.74
2022-12-10T06:44:09.399Z,0.72
2022-12-10T06:45:09.391Z,0.72
2022-12-10T06:46:09.388Z,0.74
2022-12-10T06:47:09.346Z,0.72
2022-12-10T06:48:09.331Z,0.72
2022-12-10T06:49:09.321Z,0.72
2022-12-10T06:50:09.562Z,0.72
2022-12-10T06:51:09.301Z,0.74
2022-12-10T06:52:09.271Z,0.72
2022-12-10T06:53:09.303Z,0.72
2022-12-10T06:54:09.259Z,0.72
2022-12-10T06:55:09.229Z,0.72
2022-12-10T06:56:09.218Z,0.72
2022-12-10T06:57:09.472Z,0.74
2022-12-10T06:58:09.199Z,0.74
2022-12-10T06:59:09.199Z,0.74
2022-12-10T07:00:09.593Z,0.74
2022-12-10T07:01:09.149Z,0.74
2022-12-10T07:02:09.224Z,0.72
2022-12-10T07:03:09.143Z,0.72
2022-12-10T07:04:09.136Z,0.74
2022-12-10T07:05:09.107Z,0.71
2022-12-10T07:06:09.089Z,0.71
2022-12-10T07:07:09.851Z,0.71
2022-12-10T07:08:09.154Z,0.71
2022-12-10T07:09:09.066Z,0.71
2022-12-10T07:10:09.309Z,0.72
2022-12-10T07:11:09.041Z,0.71
2022-12-10T07:12:09.006Z,0.71
2022-12-10T07:13:09.007Z,0.70
2022-12-10T07:14:09.019Z,0.71
2022-12-10T07:15:08.987Z,0.71
2022-12-10T07:16:08.988Z,0.71
2022-12-10T07:17:08.946Z,0.71
2022-12-10T07:18:08.930Z,0.71
2022-12-10T07:19:08.946Z,0.72
2022-12-10T07:20:09.216Z,0.72
2022-12-10T07:21:08.906Z,0.72
2022-12-10T07:22:08.975Z,0.72
2022-12-10T07:23:08.906Z,0.71
2022-12-10T07:24:08.996Z,0.70
2022-12-10T07:25:08.844Z,0.70
2022-12-10T07:26:08.826Z,0.71
2022-12-10T07:27:08.822Z,0.70
2022-12-10T07:28:08.804Z,0.70
2022-12-10T07:29:08.822Z,0.70
2022-12-10T07:30:09.156Z,0.68
2022-12-10T07:31:08.836Z,0.70
2022-12-10T07:32:08.759Z,0.70
2022-12-10T07:33:08.742Z,0.70
2022-12-10T07:34:08.740Z,0.71
2022-12-10T07:35:08.720Z,0.68
2022-12-10T07:36:08.710Z,0.70
2022-12-10T07:37:08.698Z,0.68
2022-12-10T07:38:08.953Z,0.68
2022-12-10T07:39:08.681Z,0.68
2022-12-10T07:40:09.044Z,0.68
2022-12-10T07:41:08.649Z,0.68
2022-12-10T07:42:08.621Z,0.70
2022-12-10T07:43:08.603Z,0.68
2022-12-10T07:44:08.612Z,0.67
2022-12-10T07:45:08.588Z,0.68
2022-12-10T07:46:08.583Z,0.70
2022-12-10T07:47:08.580Z,0.68
2022-12-10T07:48:08.560Z,0.67
2022-12-10T07:49:08.577Z,0.70
2022-12-10T07:50:08.895Z,0.67
2022-12-10T07:51:08.530Z,0.67
2022-12-10T07:52:08.498Z,0.67
2022-12-10T07:53:08.487Z,0.67
2022-12-10T07:54:08.479Z,0.64
2022-12-10T07:55:08.468Z,0.64
2022-12-10T07:56:08.444Z,0.64
2022-12-10T07:57:08.449Z,0.63
2022-12-10T07:58:08.419Z,0.63
2022-12-10T07:59:08.436Z,0.63
2022-12-10T08:00:08.738Z,0.64
2022-12-10T08:01:08.438Z,0.64
2022-12-10T08:02:09.059Z,0.64
2022-12-10T08:03:08.413Z,0.63
2022-12-10T08:04:08.366Z,0.62
2022-12-10T08:05:08.330Z,0.63
2022-12-10T08:06:08.573Z,0.63
2022-12-10T08:07:08.310Z,0.63
2022-12-10T08:08:08.408Z,0.64
2022-12-10T08:09:08.303Z,0.63
2022-12-10T08:10:08.477Z,0.63
2022-12-10T08:11:08.252Z,0.63
2022-12-10T08:12:08.236Z,0.64
2022-12-10T08:13:08.235Z,0.63
2022-12-10T08:14:08.233Z,0.63
2022-12-10T08:15:08.202Z,0.62
2022-12-10T08:16:08.217Z,0.62
2022-12-10T08:17:08.433Z,0.63
2022-12-10T08:18:08.184Z,0.63
2022-12-10T08:19:08.164Z,0.63
2022-12-10T08:20:08.385Z,0.63
2022-12-10T08:21:08.126Z,0.64
2022-12-10T08:22:08.110Z,0.63
2022-12-10T08:23:08.102Z,0.64
2022-12-10T08:24:08.122Z,0.64
2022-12-10T08:25:08.061Z,0.64
2022-12-10T08:26:08.064Z,0.64
2022-12-10T08:27:08.051Z,0.67
2022-12-10T08:28:08.033Z,0.67
2022-12-10T08:29:08.028Z,0.68
2022-12-10T08:30:08.246Z,0.68
2022-12-10T08:31:08.082Z,0.70
2022-12-10T08:32:08.037Z,0.68
2022-12-10T08:33:07.977Z,0.68
2022-12-10T08:34:07.970Z,0.70
2022-12-10T08:35:07.940Z,0.71
2022-12-10T08:36:07.929Z,0.71
2022-12-10T08:37:12.226Z,0.72
2022-12-10T08:38:07.909Z,0.72
2022-12-10T08:39:07.903Z,0.74
2022-12-10T08:40:08.328Z,0.75
2022-12-10T08:41:07.882Z,0.77
2022-12-10T08:42:07.866Z,0.78
2022-12-10T08:43:07.850Z,0.78
2022-12-10T08:44:07.856Z,0.80
2022-12-10T08:45:07.834Z,0.81
2022-12-10T08:46:07.900Z,0.81
2022-12-10T08:47:07.789Z,0.81
2022-12-10T08:48:07.770Z,0.82
2022-12-10T08:49:07.783Z,0.82
2022-12-10T08:50:08.090Z,0.81
2022-12-10T08:51:07.967Z,0.81
2022-12-10T08:52:07.717Z,0.82
2022-12-10T08:53:07.749Z,0.82
2022-12-10T08:54:07.714Z,0.82
2022-12-10T08:55:07.704Z,0.84
2022-12-10T08:56:07.668Z,0.82
2022-12-10T08:57:07.655Z,0.82
2022-12-10T08:58:07.648Z,0.84
2022-12-10T08:59:07.654Z,0.82
2022-12-10T09:00:07.954Z,0.82
2022-12-10T09:01:07.661Z,0.84
2022-12-10T09:02:07.662Z,0.86
2022-12-10T09:03:07.621Z,0.88
2022-12-10T09:04:07.575Z,0.88
2022-12-10T09:05:07.569Z,0.89
2022-12-10T09:06:07.563Z,0.88
2022-12-10T09:07:12.955Z,0.90
2022-12-10T09:08:08.536Z,0.90
2022-12-10T09:09:07.524Z,0.92
2022-12-10T09:10:07.963Z,0.93
2022-12-10T09:11:07.498Z,0.95
2022-12-10T09:12:07.466Z,0.95
2022-12-10T09:13:07.456Z,0.96
2022-12-10T09:14:07.450Z,0.98
2022-12-10T09:15:07.420Z,0.99
2022-12-10T09:16:07.471Z,1.00
2022-12-10T09:17:07.400Z,1.02
2022-12-10T09:18:07.383Z,1.04
2022-12-10T09:19:07.402Z,1.06
2022-12-10T09:20:07.762Z,1.07
2022-12-10T09:21:07.359Z,1.10
2022-12-10T09:22:07.336Z,1.13
2022-12-10T09:23:07.325Z,1.13
2022-12-10T09:24:07.321Z,1.14
2022-12-10T09:25:07.291Z,1.16
2022-12-10T09:26:07.268Z,1.16
2022-12-10T09:27:07.286Z,1.16
2022-12-10T09:28:07.262Z,1.14
2022-12-10T09:29:07.257Z,1.14
2022-12-10T09:30:07.427Z,1.16
2022-12-10T09:31:12.618Z,1.14
2022-12-10T09:32:08.224Z,1.14
2022-12-10T09:33:07.208Z,1.14
2022-12-10T09:34:07.186Z,1.14
2022-12-10T09:35:07.192Z,1.14
2022-12-10T09:36:07.406Z,1.14
2022-12-10T09:37:07.149Z,1.14
2022-12-10T09:38:07.118Z,1.16
2022-12-10T09:39:07.140Z,1.16
2022-12-10T09:40:07.459Z,1.16
2022-12-10T09:41:07.087Z,1.14
2022-12-10T09:42:07.346Z,1.16
2022-12-10T09:43:09.381Z,1.16
2022-12-10T09:44:07.053Z,1.16
2022-12-10T09:45:07.042Z,1.17
2022-12-10T09:46:07.110Z,1.16
2022-12-10T09:47:07.026Z,1.16
2022-12-10T09:48:07.003Z,1.17
2022-12-10T09:49:06.996Z,1.16
2022-12-10T09:50:13.087Z,1.18
2022-12-10T09:51:07.962Z,1.21
2022-12-10T09:52:06.943Z,1.18
2022-12-10T09:53:06.970Z,1.18
2022-12-10T09:54:06.927Z,1.20
2022-12-10T09:55:06.965Z,1.20
2022-12-10T09:56:06.923Z,1.18
2022-12-10T09:57:06.904Z,1.21
2022-12-10T09:58:07.144Z,1.21
2022-12-10T09:59:06.879Z,1.20
2022-12-10T10:00:07.118Z,1.20
2022-12-10T10:01:06.891Z,1.18
2022-12-10T10:02:06.861Z,1.18
2022-12-10T10:03:06.800Z,1.17
2022-12-10T10:04:06.814Z,1.18
2022-12-10T10:05:06.782Z,1.18
2022-12-10T10:06:11.151Z,1.18
2022-12-10T10:07:06.747Z,1.20
2022-12-10T10:08:06.881Z,1.20
2022-12-10T10:09:06.751Z,1.18
2022-12-10T10:10:06.942Z,1.17
2022-12-10T10:11:06.721Z,1.16
2022-12-10T10:12:09.113Z,1.16
2022-12-10T10:13:06.669Z,1.14
2022-12-10T10:14:06.700Z,1.16
2022-12-10T10:15:06.639Z,1.14
2022-12-10T10:16:06.637Z,1.14
2022-12-10T10:17:06.667Z,1.14
2022-12-10T10:18:06.598Z,1.14
2022-12-10T10:19:06.622Z,1.13
2022-12-10T10:20:06.870Z,1.14
2022-12-10T10:21:06.557Z,1.16
2022-12-10T10:22:06.551Z,1.14
2022-12-10T10:23:06.800Z,1.16
2022-12-10T10:24:11.606Z,1.17
2022-12-10T10:25:07.530Z,1.17
2022-12-10T10:26:06.506Z,1.17
2022-12-10T10:27:06.499Z,1.16
2022-12-10T10:28:06.516Z,1.16
2022-12-10T10:29:06.517Z,1.14
2022-12-10T10:30:06.455Z,1.14
2022-12-10T10:31:06.472Z,1.11
2022-12-10T10:32:06.420Z,1.13
2022-12-10T10:33:06.415Z,1.11
2022-12-10T10:34:06.429Z,1.11
2022-12-10T10:35:06.373Z,1.13
2022-12-10T10:36:11.116Z,1.11
2022-12-10T10:37:07.363Z,1.11
2022-12-10T10:38:06.367Z,1.13
2022-12-10T10:39:06.351Z,1.11
2022-12-10T10:40:06.442Z,1.10
2022-12-10T10:41:06.325Z,1.10
2022-12-10T10:42:06.301Z,1.08
2022-12-10T10:43:06.285Z,1.10
2022-12-10T10:44:06.290Z,1.08
2022-12-10T10:45:06.264Z,1.08
2022-12-10T10:46:06.268Z,1.08
2022-12-10T10:47:06.224Z,1.10
2022-12-10T10:48:06.454Z,1.10
2022-12-10T10:49:06.247Z,1.08
2022-12-10T10:50:06.501Z,1.08
2022-12-10T10:51:06.174Z,1.08
2022-12-10T10:52:06.159Z,1.07
2022-12-10T10:53:06.387Z,1.07
2022-12-10T10:54:08.543Z,1.07
2022-12-10T10:55:06.127Z,1.06
2022-12-10T10:56:06.108Z,1.07
2022-12-10T10:57:06.123Z,1.07
2022-12-10T10:58:06.098Z,1.08
2022-12-10T10:59:06.096Z,1.07
2022-12-10T11:00:09.595Z,1.10
2022-12-10T11:01:06.131Z,1.11
2022-12-10T11:02:06.069Z,1.11
2022-12-10T11:03:06.010Z,1.13
2022-12-10T11:04:06.017Z,1.14
2022-12-10T11:05:05.989Z,1.14
2022-12-10T11:06:05.997Z,1.17
2022-12-10T11:07:05.959Z,1.16
2022-12-10T11:08:06.086Z,1.14
2022-12-10T11:09:05.945Z,1.17
2022-12-10T11:10:05.981Z,1.17
2022-12-10T11:11:05.921Z,1.14
2022-12-10T11:12:05.915Z,1.16
2022-12-10T11:13:05.879Z,1.16
2022-12-10T11:14:05.905Z,1.14
2022-12-10T11:15:05.889Z,1.16
2022-12-10T11:16:05.856Z,1.16
2022-12-10T11:17:05.908Z,1.14
2022-12-10T11:18:05.843Z,1.14
2022-12-10T11:19:05.849Z,1.14
2022-12-10T11:20:05.793Z,1.13
2022-12-10T11:21:05.795Z,1.13
2022-12-10T11:22:05.776Z,1.14
2022-12-10T11:23:05.756Z,1.14
2022-12-10T11:24:05.762Z,1.14
2022-12-10T11:25:05.726Z,1.16
2022-12-10T11:26:05.739Z,1.17
2022-12-10T11:27:05.725Z,1.17
2022-12-10T11:28:05.694Z,1.17
2022-12-10T11:29:05.694Z,1.20
2022-12-10T11:30:05.674Z,1.20
2022-12-10T11:31:05.710Z,1.20
2022-12-10T11:32:07.780Z,1.21
2022-12-10T11:33:06.620Z,1.20
2022-12-10T11:34:05.632Z,1.24
2022-12-10T11:35:05.596Z,1.24
2022-12-10T11:36:05.588Z,1.24
2022-12-10T11:37:05.606Z,1.25
2022-12-10T11:38:05.568Z,1.28
2022-12-10T11:39:05.594Z,1.28
2022-12-10T11:40:05.540Z,1.28
2022-12-10T11:41:05.530Z,1.26
2022-12-10T11:42:05.515Z,1.28
2022-12-10T11:43:05.502Z,1.29
2022-12-10T11:44:05.498Z,1.29
2022-12-10T11:45:05.469Z,1.32
2022-12-10T11:46:05.481Z,1.32
2022-12-10T11:47:05.429Z,1.34
2022-12-10T11:48:05.439Z,1.34
2022-12-10T11:49:05.431Z,1.32
2022-12-10T11:50:05.407Z,1.29
2022-12-10T11:51:05.396Z,1.29
2022-12-10T11:52:05.367Z,1.29
2022-12-10T11:53:05.361Z,1.31
2022-12-10T11:54:05.371Z,1.32
2022-12-10T11:55:08.677Z,1.34
2022-12-10T11:56:06.333Z,1.34
2022-12-10T11:57:05.320Z,1.38
2022-12-10T11:58:05.317Z,1.38
2022-12-10T11:59:05.301Z,1.39
2022-12-10T12:00:06.025Z,1.42
2022-12-10T12:01:07.072Z,1.43
2022-12-10T12:02:05.323Z,1.42
2022-12-10T12:03:05.249Z,1.43
2022-12-10T12:04:05.321Z,1.42
2022-12-10T12:05:05.207Z,1.39
2022-12-10T12:06:08.410Z,1.39
2022-12-10T12:07:05.209Z,1.39
2022-12-10T12:08:05.277Z,1.38
2022-12-10T12:09:05.190Z,1.38
2022-12-10T12:10:05.143Z,1.36
2022-12-10T12:11:05.133Z,1.35
2022-12-10T12:12:05.119Z,1.36
2022-12-10T12:13:05.094Z,1.36
2022-12-10T12:14:05.097Z,1.38
2022-12-10T12:15:05.075Z,1.38
2022-12-10T12:16:05.100Z,1.38
2022-12-10T12:17:05.058Z,1.38
2022-12-10T12:18:05.051Z,1.38
2022-12-10T12:19:05.066Z,1.39
2022-12-10T12:20:05.015Z,1.39
2022-12-10T12:21:05.000Z,1.38
2022-12-10T12:22:05.003Z,1.38
2022-12-10T12:23:04.974Z,1.36
2022-12-10T12:24:05.236Z,1.36
2022-12-10T12:25:04.987Z,1.35
2022-12-10T12:26:04.936Z,1.36
2022-12-10T12:27:04.921Z,1.36
2022-12-10T12:28:04.929Z,1.35
2022-12-10T12:29:04.940Z,1.35
2022-12-10T12:30:04.958Z,1.34
2022-12-10T12:31:04.915Z,1.32
2022-12-10T12:32:04.863Z,1.32
2022-12-10T12:33:04.852Z,1.31
2022-12-10T12:34:04.847Z,1.31
2022-12-10T12:35:04.809Z,1.31
2022-12-10T12:36:04.848Z,1.28
2022-12-10T12:37:04.811Z,1.26
2022-12-10T12:38:04.783Z,1.26
2022-12-10T12:39:04.788Z,1.24
2022-12-10T12:40:04.774Z,1.25
2022-12-10T12:41:04.727Z,1.26
2022-12-10T12:42:04.747Z,1.24
2022-12-10T12:43:04.737Z,1.24
2022-12-10T12:44:04.740Z,1.21
2022-12-10T12:45:04.687Z,1.20
2022-12-10T12:46:04.751Z,1.21
2022-12-10T12:47:04.667Z,1.24
2022-12-10T12:48:04.670Z,1.24
2022-12-10T12:49:04.667Z,1.24
2022-12-10T12:50:04.617Z,1.24
2022-12-10T12:51:04.627Z,1.24
2022-12-10T12:52:04.615Z,1.24
2022-12-10T12:53:04.628Z,1.24
2022-12-10T12:54:04.597Z,1.21
2022-12-10T12:55:04.556Z,1.24
2022-12-10T12:56:04.546Z,1.21
2022-12-10T12:57:04.533Z,1.20
2022-12-10T12:58:04.522Z,1.20
2022-12-10T12:59:04.524Z,1.18
2022-12-10T13:00:04.607Z,1.17
2022-12-10T13:01:04.464Z,1.17
2022-12-10T13:02:04.521Z,1.17
2022-12-10T13:03:04.514Z,1.16
2022-12-10T13:04:04.456Z,1.13
2022-12-10T13:05:04.424Z,1.11
2022-12-10T13:06:04.415Z,1.10
2022-12-10T13:07:04.391Z,1.10
2022-12-10T13:08:04.437Z,1.08
2022-12-10T13:09:04.418Z,1.08
2022-12-10T13:10:04.363Z,1.08
2022-12-10T13:11:04.345Z,1.07
2022-12-10T13:12:04.335Z,1.07
2022-12-10T13:13:04.332Z,1.06
2022-12-10T13:14:04.325Z,1.06
2022-12-10T13:15:04.305Z,1.06
2022-12-10T13:16:04.304Z,1.07
2022-12-10T13:17:04.262Z,1.07
2022-12-10T13:18:04.252Z,1.07